createdAt,value
2018-09-30T00:00:11.567Z,1009.31
2018-09-30T00:01:11.581Z,1009.31
2018-09-30T00:02:11.596Z,1009.29
2018-09-30T00:03:11.616Z,1009.28
2018-09-30T00:04:11.645Z,1009.27
2018-09-30T00:05:11.662Z,1009.28
2018-09-30T00:06:11.676Z,1009.25
2018-09-30T00:07:11.697Z,1009.24
2018-09-30T00:08:11.720Z,1009.28
2018-09-30T00:09:11.739Z,1009.25
2018-09-30T00:10:11.749Z,1009.24
2018-09-30T00:11:11.775Z,1009.22
2018-09-30T00:13:11.827Z,1009.22
2018-09-30T00:14:11.840Z,1009.17
2018-09-30T00:16:11.870Z,1009.19
2018-09-30T00:17:11.889Z,1009.15
2018-09-30T00:18:11.906Z,1009.13
2018-09-30T00:19:12.932Z,1009.12
2018-09-30T00:20:11.952Z,1009.12
2018-09-30T00:21:11.979Z,1009.09
2018-09-30T00:22:11.990Z,1009.06
2018-09-30T00:23:12.009Z,1009.08
2018-09-30T00:25:12.044Z,1009.00
2018-09-30T00:26:12.062Z,1009.03
2018-09-30T00:27:12.101Z,1009.00
2018-09-30T00:29:12.119Z,1009.00
2018-09-30T00:30:12.160Z,1008.98
2018-09-30T00:32:12.181Z,1008.98
2018-09-30T00:33:12.201Z,1008.93
2018-09-30T00:34:12.213Z,1008.93
2018-09-30T00:35:12.241Z,1008.90
2018-09-30T00:36:12.288Z,1008.87
2018-09-30T00:37:12.280Z,1008.89
2018-09-30T00:38:12.290Z,1008.88
2018-09-30T00:39:12.319Z,1008.86
2018-09-30T00:40:12.348Z,1008.87
2018-09-30T00:41:12.350Z,1008.87
2018-09-30T00:42:12.377Z,1008.82
2018-09-30T00:43:12.505Z,1008.87
2018-09-30T00:44:12.407Z,1008.79
2018-09-30T00:45:12.428Z,1008.81
2018-09-30T00:46:12.460Z,1008.82
2018-09-30T00:47:12.468Z,1008.74
2018-09-30T00:48:12.485Z,1008.79
2018-09-30T00:49:12.512Z,1008.72
2018-09-30T00:50:12.518Z,1008.73
2018-09-30T00:51:12.542Z,1008.70
2018-09-30T00:52:12.563Z,1008.70
2018-09-30T00:53:12.576Z,1008.73
2018-09-30T00:54:12.593Z,1008.73
2018-09-30T00:55:12.630Z,1008.73
2018-09-30T00:56:12.645Z,1008.69
2018-09-30T00:57:12.656Z,1008.71
2018-09-30T00:58:12.678Z,1008.66
2018-09-30T00:59:12.692Z,1008.67
2018-09-30T01:00:12.726Z,1008.63
2018-09-30T01:01:12.743Z,1008.67
2018-09-30T01:02:12.752Z,1008.67
2018-09-30T01:03:12.765Z,1008.66
2018-09-30T01:04:12.798Z,1008.68
2018-09-30T01:05:12.803Z,1008.65
2018-09-30T01:06:12.827Z,1008.67
2018-09-30T01:07:12.838Z,1008.65
2018-09-30T01:08:12.857Z,1008.65
2018-09-30T01:09:12.875Z,1008.65
2018-09-30T01:10:12.899Z,1008.64
2018-09-30T01:11:12.955Z,1008.62
2018-09-30T01:12:12.933Z,1008.65
2018-09-30T01:13:12.961Z,1008.66
2018-09-30T01:14:12.971Z,1008.64
2018-09-30T01:15:12.993Z,1008.64
2018-09-30T01:16:13.014Z,1008.63
2018-09-30T01:17:13.038Z,1008.61
2018-09-30T01:18:13.051Z,1008.58
2018-09-30T01:19:13.073Z,1008.57
2018-09-30T01:20:13.086Z,1008.56
2018-09-30T01:21:13.106Z,1008.57
2018-09-30T01:22:13.146Z,1008.55
2018-09-30T01:23:13.154Z,1008.55
2018-09-30T01:24:13.168Z,1008.53
2018-09-30T01:25:13.176Z,1008.55
2018-09-30T01:26:13.213Z,1008.55
2018-09-30T01:27:13.219Z,1008.56
2018-09-30T01:28:13.266Z,1008.57
2018-09-30T01:29:13.252Z,1008.55
2018-09-30T01:30:13.279Z,1008.54
2018-09-30T01:31:13.304Z,1008.58
2018-09-30T01:32:13.312Z,1008.52
2018-09-30T01:33:13.332Z,1008.53
2018-09-30T01:34:13.349Z,1008.56
2018-09-30T01:35:13.452Z,1008.51
2018-09-30T01:36:13.387Z,1008.48
2018-09-30T01:37:13.400Z,1008.44
2018-09-30T01:38:13.428Z,1008.45
2018-09-30T01:39:13.485Z,1008.44
2018-09-30T01:40:13.467Z,1008.40
2018-09-30T01:41:13.478Z,1008.36
2018-09-30T01:42:13.497Z,1008.34
2018-09-30T01:43:13.511Z,1008.30
2018-09-30T01:44:13.537Z,1008.32
2018-09-30T01:47:13.592Z,1008.21
2018-09-30T01:48:13.615Z,1008.18
2018-09-30T01:49:13.642Z,1008.17
2018-09-30T01:50:13.714Z,1008.20
2018-09-30T01:51:13.691Z,1008.18
2018-09-30T01:52:13.724Z,1008.15
2018-09-30T01:53:13.702Z,1008.16
2018-09-30T01:54:13.728Z,1008.13
2018-09-30T01:55:13.747Z,1008.14
2018-09-30T01:56:13.764Z,1008.11
2018-09-30T01:57:13.786Z,1008.07
2018-09-30T01:58:13.801Z,1008.12
2018-09-30T01:59:13.823Z,1008.08
2018-09-30T02:00:13.845Z,1008.08
2018-09-30T02:01:13.864Z,1008.03
2018-09-30T02:02:13.876Z,1008.01
2018-09-30T02:03:13.944Z,1008.03
2018-09-30T02:04:13.913Z,1008.05
2018-09-30T02:05:13.933Z,1008.02
2018-09-30T02:06:13.950Z,1008.03
2018-09-30T02:07:13.970Z,1008.01
2018-09-30T02:08:14.049Z,1007.99
2018-09-30T02:09:14.016Z,1007.96
2018-09-30T02:10:14.025Z,1007.99
2018-09-30T02:11:14.048Z,1008.01
2018-09-30T02:12:14.075Z,1007.99
2018-09-30T02:13:14.084Z,1007.99
2018-09-30T02:14:14.224Z,1007.99
2018-09-30T02:15:14.117Z,1007.99
2018-09-30T02:16:14.142Z,1007.99
2018-09-30T02:17:14.161Z,1007.97
2018-09-30T02:18:14.177Z,1007.95
2018-09-30T02:19:14.207Z,1007.96
2018-09-30T02:20:14.215Z,1007.95
2018-09-30T02:21:14.249Z,1007.95
2018-09-30T02:22:14.254Z,1007.97
2018-09-30T02:23:14.281Z,1007.99
2018-09-30T02:24:14.288Z,1008.02
2018-09-30T02:25:14.307Z,1007.99
2018-09-30T02:26:14.331Z,1007.97
2018-09-30T02:27:14.353Z,1007.93
2018-09-30T02:28:14.375Z,1007.93
2018-09-30T02:29:14.384Z,1007.92
2018-09-30T02:30:14.400Z,1007.87
2018-09-30T02:31:14.433Z,1007.83
2018-09-30T02:32:14.438Z,1007.81
2018-09-30T02:33:14.454Z,1007.83
2018-09-30T02:34:14.502Z,1007.78
2018-09-30T02:35:14.490Z,1007.79
2018-09-30T02:36:14.513Z,1007.78
2018-09-30T02:37:14.529Z,1007.79
2018-09-30T02:38:14.550Z,1007.75
2018-09-30T02:39:14.570Z,1007.75
2018-09-30T02:40:14.594Z,1007.75
2018-09-30T02:41:14.608Z,1007.78
2018-09-30T02:42:14.649Z,1007.74
2018-09-30T02:43:14.637Z,1007.78
2018-09-30T02:44:14.659Z,1007.79
2018-09-30T02:45:14.684Z,1007.80
2018-09-30T02:46:14.699Z,1007.78
2018-09-30T02:47:14.722Z,1007.80
2018-09-30T02:48:14.735Z,1007.79
2018-09-30T02:49:14.769Z,1007.74
2018-09-30T02:51:14.792Z,1007.68
2018-09-30T02:52:14.835Z,1007.69
2018-09-30T02:53:14.824Z,1007.72
2018-09-30T02:54:14.864Z,1007.72
2018-09-30T02:55:14.886Z,1007.77
2018-09-30T02:56:14.886Z,1007.74
2018-09-30T02:57:14.898Z,1007.74
2018-09-30T02:58:14.936Z,1007.73
2018-09-30T02:59:15.001Z,1007.75
2018-09-30T03:00:14.959Z,1007.72
2018-09-30T03:01:14.989Z,1007.75
2018-09-30T03:02:15.000Z,1007.69
2018-09-30T03:03:15.015Z,1007.68
2018-09-30T03:05:15.051Z,1007.66
2018-09-30T03:06:15.079Z,1007.66
2018-09-30T03:07:15.091Z,1007.62
2018-09-30T03:08:15.119Z,1007.65
2018-09-30T03:09:15.126Z,1007.64
2018-09-30T03:10:15.139Z,1007.59
2018-09-30T03:11:15.172Z,1007.59
2018-09-30T03:12:15.188Z,1007.59
2018-09-30T03:13:15.203Z,1007.61
2018-09-30T03:14:15.219Z,1007.62
2018-09-30T03:15:15.241Z,1007.59
2018-09-30T03:16:15.269Z,1007.61
2018-09-30T03:17:15.280Z,1007.58
2018-09-30T03:18:15.294Z,1007.57
2018-09-30T03:20:15.334Z,1007.57
2018-09-30T03:21:15.361Z,1007.60
2018-09-30T03:22:15.377Z,1007.59
2018-09-30T03:23:15.392Z,1007.59
2018-09-30T03:24:15.416Z,1007.56
2018-09-30T03:26:15.458Z,1007.54
2018-09-30T03:27:15.464Z,1007.58
2018-09-30T03:28:15.482Z,1007.57
2018-09-30T03:30:15.539Z,1007.55
2018-09-30T03:31:15.529Z,1007.52
2018-09-30T03:32:15.561Z,1007.51
2018-09-30T03:33:15.579Z,1007.50
2018-09-30T03:34:15.709Z,1007.53
2018-09-30T03:35:15.613Z,1007.50
2018-09-30T03:36:15.650Z,1007.51
2018-09-30T03:37:15.654Z,1007.48
2018-09-30T03:38:15.666Z,1007.51
2018-09-30T03:39:15.688Z,1007.51
2018-09-30T03:40:15.710Z,1007.48
2018-09-30T03:41:15.719Z,1007.52
2018-09-30T03:42:15.744Z,1007.52
2018-09-30T03:43:15.763Z,1007.57
2018-09-30T03:44:15.778Z,1007.56
2018-09-30T03:45:15.811Z,1007.57
2018-09-30T03:46:15.826Z,1007.57
2018-09-30T03:47:15.965Z,1007.61
2018-09-30T03:48:15.853Z,1007.57
2018-09-30T03:49:15.878Z,1007.61
2018-09-30T03:50:15.895Z,1007.62
2018-09-30T03:51:15.913Z,1007.61
2018-09-30T03:52:15.928Z,1007.60
2018-09-30T03:53:15.947Z,1007.57
2018-09-30T03:54:15.962Z,1007.53
2018-09-30T03:55:15.983Z,1007.53
2018-09-30T03:56:16.006Z,1007.56
2018-09-30T03:57:16.025Z,1007.53
2018-09-30T03:58:16.041Z,1007.50
2018-09-30T03:59:16.067Z,1007.49
2018-09-30T04:00:16.080Z,1007.44
2018-09-30T04:01:16.098Z,1007.46
2018-09-30T04:02:16.115Z,1007.46
2018-09-30T04:03:16.128Z,1007.44
2018-09-30T04:04:16.213Z,1007.46
2018-09-30T04:05:16.166Z,1007.42
2018-09-30T04:07:16.216Z,1007.42
2018-09-30T04:08:16.233Z,1007.45
2018-09-30T04:09:16.239Z,1007.41
2018-09-30T04:10:16.263Z,1007.45
2018-09-30T04:11:16.296Z,1007.42
2018-09-30T04:12:16.300Z,1007.41
2018-09-30T04:13:16.335Z,1007.44
2018-09-30T04:14:16.332Z,1007.43
2018-09-30T04:15:16.410Z,1007.44
2018-09-30T04:16:16.365Z,1007.43
2018-09-30T04:17:16.400Z,1007.46
2018-09-30T04:18:16.412Z,1007.44
2018-09-30T04:19:16.431Z,1007.42
2018-09-30T04:21:16.471Z,1007.34
2018-09-30T04:22:16.481Z,1007.28
2018-09-30T04:23:16.503Z,1007.29
2018-09-30T04:24:16.526Z,1007.28
2018-09-30T04:25:16.539Z,1007.26
2018-09-30T04:26:16.556Z,1007.30
2018-09-30T04:27:16.574Z,1007.26
2018-09-30T04:28:16.597Z,1007.27
2018-09-30T04:29:16.616Z,1007.25
2018-09-30T04:30:16.632Z,1007.26
2018-09-30T04:31:16.658Z,1007.27
2018-09-30T04:32:16.671Z,1007.19
2018-09-30T04:33:16.713Z,1007.19
2018-09-30T04:34:16.704Z,1007.18
2018-09-30T04:35:16.721Z,1007.22
2018-09-30T04:36:16.742Z,1007.22
2018-09-30T04:37:16.758Z,1007.22
2018-09-30T04:39:16.794Z,1007.21
2018-09-30T04:40:16.811Z,1007.19
2018-09-30T04:41:16.832Z,1007.23
2018-09-30T04:42:16.847Z,1007.24
2018-09-30T04:43:16.864Z,1007.28
2018-09-30T04:44:16.887Z,1007.23
2018-09-30T04:45:16.904Z,1007.22
2018-09-30T04:46:16.933Z,1007.19
2018-09-30T04:47:16.941Z,1007.16
2018-09-30T04:48:16.962Z,1007.16
2018-09-30T04:49:16.981Z,1007.14
2018-09-30T04:50:16.991Z,1007.12
2018-09-30T04:51:17.019Z,1007.07
2018-09-30T04:52:17.038Z,1007.08
2018-09-30T04:53:17.056Z,1007.12
2018-09-30T04:54:17.061Z,1007.11
2018-09-30T04:55:17.097Z,1007.13
2018-09-30T04:56:17.105Z,1007.11
2018-09-30T04:57:17.118Z,1007.11
2018-09-30T04:58:17.140Z,1007.16
2018-09-30T04:59:17.160Z,1007.18
2018-09-30T05:00:17.195Z,1007.18
2018-09-30T05:01:17.193Z,1007.19
2018-09-30T05:02:17.211Z,1007.13
2018-09-30T05:03:17.233Z,1007.18
2018-09-30T05:04:17.253Z,1007.19
2018-09-30T05:05:17.278Z,1007.20
2018-09-30T05:06:17.291Z,1007.21
2018-09-30T05:07:17.446Z,1007.19
2018-09-30T05:08:17.323Z,1007.17
2018-09-30T05:09:17.337Z,1007.17
2018-09-30T05:10:17.360Z,1007.16
2018-09-30T05:11:17.373Z,1007.12
2018-09-30T05:12:17.394Z,1007.09
2018-09-30T05:13:17.409Z,1007.15
2018-09-30T05:14:17.431Z,1007.12
2018-09-30T05:15:17.447Z,1007.14
2018-09-30T05:16:17.526Z,1007.13
2018-09-30T05:17:17.487Z,1007.13
2018-09-30T05:18:17.503Z,1007.08
2018-09-30T05:19:17.524Z,1007.07
2018-09-30T05:20:17.565Z,1007.07
2018-09-30T05:21:17.555Z,1007.08
2018-09-30T05:22:17.596Z,1007.08
2018-09-30T05:23:17.598Z,1007.10
2018-09-30T05:24:17.605Z,1007.12
2018-09-30T05:25:17.629Z,1007.16
2018-09-30T05:26:17.649Z,1007.13
2018-09-30T05:27:17.672Z,1007.14
2018-09-30T05:28:17.687Z,1007.15
2018-09-30T05:29:17.703Z,1007.15
2018-09-30T05:30:17.721Z,1007.18
2018-09-30T05:31:17.759Z,1007.13
2018-09-30T05:32:17.756Z,1007.16
2018-09-30T05:33:17.770Z,1007.12
2018-09-30T05:35:17.821Z,1007.19
2018-09-30T05:36:17.825Z,1007.21
2018-09-30T05:37:18.059Z,1007.23
2018-09-30T05:38:17.909Z,1007.21
2018-09-30T05:39:17.887Z,1007.21
2018-09-30T05:40:17.898Z,1007.27
2018-09-30T05:41:17.913Z,1007.27
2018-09-30T05:42:17.932Z,1007.32
2018-09-30T05:43:17.956Z,1007.35
2018-09-30T05:44:17.966Z,1007.36
2018-09-30T05:45:17.983Z,1007.42
2018-09-30T05:46:17.998Z,1007.41
2018-09-30T05:47:18.031Z,1007.40
2018-09-30T05:48:18.064Z,1007.39
2018-09-30T05:49:18.128Z,1007.36
2018-09-30T05:50:18.084Z,1007.30
2018-09-30T05:51:18.103Z,1007.23
2018-09-30T05:52:18.128Z,1007.27
2018-09-30T05:53:18.135Z,1007.30
2018-09-30T05:54:18.151Z,1007.34
2018-09-30T05:55:18.177Z,1007.39
2018-09-30T05:56:18.183Z,1007.33
2018-09-30T05:57:18.202Z,1007.31
2018-09-30T05:58:18.232Z,1007.28
2018-09-30T05:59:18.237Z,1007.32
2018-09-30T06:00:18.264Z,1007.36
2018-09-30T06:01:18.330Z,1007.37
2018-09-30T06:02:18.450Z,1007.36
2018-09-30T06:03:18.313Z,1007.40
2018-09-30T06:04:18.326Z,1007.41
2018-09-30T06:05:18.353Z,1007.37
2018-09-30T06:06:18.376Z,1007.40
2018-09-30T06:07:18.381Z,1007.45
2018-09-30T06:08:18.404Z,1007.44
2018-09-30T06:09:18.480Z,1007.41
2018-09-30T06:10:18.433Z,1007.41
2018-09-30T06:11:18.456Z,1007.44
2018-09-30T06:12:18.482Z,1007.46
2018-09-30T06:13:18.490Z,1007.48
2018-09-30T06:14:18.748Z,1007.46
2018-09-30T06:15:18.525Z,1007.41
2018-09-30T06:16:18.549Z,1007.41
2018-09-30T06:17:18.590Z,1007.40
2018-09-30T06:18:18.576Z,1007.41
2018-09-30T06:19:18.597Z,1007.43
2018-09-30T06:20:18.666Z,1007.40
2018-09-30T06:21:18.634Z,1007.36
2018-09-30T06:22:18.641Z,1007.38
2018-09-30T06:23:18.671Z,1007.35
2018-09-30T06:24:18.714Z,1007.36
2018-09-30T06:25:18.698Z,1007.33
2018-09-30T06:26:18.713Z,1007.36
2018-09-30T06:27:18.741Z,1007.35
2018-09-30T06:28:18.762Z,1007.37
2018-09-30T06:29:18.769Z,1007.37
2018-09-30T06:30:18.795Z,1007.40
2018-09-30T06:31:18.935Z,1007.42
2018-09-30T06:32:18.825Z,1007.42
2018-09-30T06:33:18.846Z,1007.40
2018-09-30T06:34:18.858Z,1007.40
2018-09-30T06:35:18.875Z,1007.41
2018-09-30T06:36:18.898Z,1007.43
2018-09-30T06:37:18.962Z,1007.37
2018-09-30T06:38:18.924Z,1007.33
2018-09-30T06:39:18.943Z,1007.39
2018-09-30T06:40:19.032Z,1007.40
2018-09-30T06:41:18.987Z,1007.35
2018-09-30T06:42:19.114Z,1007.40
2018-09-30T06:43:19.105Z,1007.38
2018-09-30T06:44:19.118Z,1007.38
2018-09-30T06:45:19.104Z,1007.44
2018-09-30T06:46:19.076Z,1007.48
2018-09-30T06:47:19.087Z,1007.47
2018-09-30T06:48:19.130Z,1007.50
2018-09-30T06:49:19.136Z,1007.49
2018-09-30T06:50:19.147Z,1007.46
2018-09-30T06:51:19.157Z,1007.45
2018-09-30T06:52:19.187Z,1007.43
2018-09-30T06:53:19.204Z,1007.43
2018-09-30T06:54:19.227Z,1007.47
2018-09-30T06:55:19.228Z,1007.47
2018-09-30T06:56:19.253Z,1007.48
2018-09-30T06:57:19.309Z,1007.48
2018-09-30T06:58:19.298Z,1007.52
2018-09-30T06:59:19.313Z,1007.52
2018-09-30T07:00:19.319Z,1007.48
2018-09-30T07:01:19.371Z,1007.48
2018-09-30T07:02:19.362Z,1007.52
2018-09-30T07:03:19.378Z,1007.50
2018-09-30T07:04:19.397Z,1007.50
2018-09-30T07:05:19.404Z,1007.56
2018-09-30T07:06:19.430Z,1007.54
2018-09-30T07:07:19.439Z,1007.55
2018-09-30T07:08:19.475Z,1007.56
2018-09-30T07:09:19.484Z,1007.54
2018-09-30T07:10:19.504Z,1007.57
2018-09-30T07:11:19.536Z,1007.56
2018-09-30T07:12:19.629Z,1007.57
2018-09-30T07:13:19.564Z,1007.56
2018-09-30T07:14:19.571Z,1007.55
2018-09-30T07:15:19.591Z,1007.56
2018-09-30T07:16:19.655Z,1007.54
2018-09-30T07:17:19.619Z,1007.56
2018-09-30T07:18:19.648Z,1007.53
2018-09-30T07:19:19.661Z,1007.54
2018-09-30T07:20:19.674Z,1007.54
2018-09-30T07:21:19.704Z,1007.52
2018-09-30T07:22:19.776Z,1007.53
2018-09-30T07:23:19.848Z,1007.54
2018-09-30T07:24:19.750Z,1007.55
2018-09-30T07:25:19.767Z,1007.54
2018-09-30T07:26:19.784Z,1007.51
2018-09-30T07:27:19.816Z,1007.49
2018-09-30T07:28:19.829Z,1007.55
2018-09-30T07:29:19.847Z,1007.50
2018-09-30T07:30:19.851Z,1007.51
2018-09-30T07:31:19.881Z,1007.51
2018-09-30T07:32:19.894Z,1007.52
2018-09-30T07:33:19.910Z,1007.53
2018-09-30T07:34:19.960Z,1007.53
2018-09-30T07:35:19.945Z,1007.52
2018-09-30T07:36:19.958Z,1007.54
2018-09-30T07:37:19.997Z,1007.52
2018-09-30T07:38:19.998Z,1007.56
2018-09-30T07:39:20.070Z,1007.48
2018-09-30T07:40:20.042Z,1007.54
2018-09-30T07:41:20.053Z,1007.52
2018-09-30T07:42:20.086Z,1007.52
2018-09-30T07:43:20.091Z,1007.52
2018-09-30T07:44:20.101Z,1007.48
2018-09-30T07:45:20.146Z,1007.51
2018-09-30T07:46:20.147Z,1007.50
2018-09-30T07:47:20.165Z,1007.51
2018-09-30T07:48:20.181Z,1007.43
2018-09-30T07:49:20.215Z,1007.47
2018-09-30T07:50:20.239Z,1007.49
2018-09-30T07:51:20.297Z,1007.47
2018-09-30T07:52:20.305Z,1007.45
2018-09-30T07:53:20.298Z,1007.47
2018-09-30T07:54:20.282Z,1007.45
2018-09-30T07:55:20.313Z,1007.44
2018-09-30T07:56:20.330Z,1007.49
2018-09-30T07:57:20.339Z,1007.48
2018-09-30T07:58:20.372Z,1007.46
2018-09-30T07:59:20.409Z,1007.42
2018-09-30T08:00:20.400Z,1007.45
2018-09-30T08:01:20.409Z,1007.45
2018-09-30T08:02:20.431Z,1007.42
2018-09-30T08:03:20.454Z,1007.44
2018-09-30T08:05:20.495Z,1007.42
2018-09-30T08:06:20.589Z,1007.40
2018-09-30T08:07:20.544Z,1007.43
2018-09-30T08:08:20.568Z,1007.42
2018-09-30T08:09:20.561Z,1007.40
2018-09-30T08:10:20.600Z,1007.38
2018-09-30T08:11:20.603Z,1007.39
2018-09-30T08:12:20.620Z,1007.39
2018-09-30T08:13:20.638Z,1007.40
2018-09-30T08:14:20.650Z,1007.43
2018-09-30T08:15:20.666Z,1007.44
2018-09-30T08:16:20.692Z,1007.44
2018-09-30T08:17:20.713Z,1007.40
2018-09-30T08:18:20.763Z,1007.42
2018-09-30T08:19:20.788Z,1007.42
2018-09-30T08:20:21.158Z,1007.42
2018-09-30T08:21:20.848Z,1007.43
2018-09-30T08:22:20.927Z,1007.42
2018-09-30T08:23:20.811Z,1007.39
2018-09-30T08:24:20.931Z,1007.43
2018-09-30T08:25:20.867Z,1007.37
2018-09-30T08:26:20.922Z,1007.39
2018-09-30T08:27:20.887Z,1007.37
2018-09-30T08:28:20.909Z,1007.35
2018-09-30T08:29:20.943Z,1007.32
2018-09-30T08:30:20.948Z,1007.35
2018-09-30T08:31:20.961Z,1007.35
2018-09-30T08:32:20.996Z,1007.36
2018-09-30T08:33:21.004Z,1007.36
2018-09-30T08:34:21.009Z,1007.35
2018-09-30T08:35:21.035Z,1007.30
2018-09-30T08:36:21.066Z,1007.35
2018-09-30T08:37:21.065Z,1007.30
2018-09-30T08:38:21.089Z,1007.30
2018-09-30T08:39:21.109Z,1007.35
2018-09-30T08:40:21.126Z,1007.36
2018-09-30T08:41:21.148Z,1007.32
2018-09-30T08:42:21.159Z,1007.29
2018-09-30T08:43:21.177Z,1007.25
2018-09-30T08:44:21.202Z,1007.28
2018-09-30T08:45:21.235Z,1007.27
2018-09-30T08:46:21.230Z,1007.20
2018-09-30T08:47:21.267Z,1007.24
2018-09-30T08:48:21.299Z,1007.25
2018-09-30T08:49:21.377Z,1007.24
2018-09-30T08:50:21.299Z,1007.22
2018-09-30T08:51:21.330Z,1007.23
2018-09-30T08:52:21.352Z,1007.26
2018-09-30T08:53:21.369Z,1007.21
2018-09-30T08:54:21.379Z,1007.19
2018-09-30T08:55:21.395Z,1007.16
2018-09-30T08:56:21.427Z,1007.13
2018-09-30T08:57:21.427Z,1007.05
2018-09-30T08:58:21.458Z,1007.11
2018-09-30T08:59:21.475Z,1007.06
2018-09-30T09:00:21.520Z,1007.07
2018-09-30T09:01:21.517Z,1007.07
2018-09-30T09:02:21.536Z,1007.08
2018-09-30T09:03:21.542Z,1007.09
2018-09-30T09:04:21.570Z,1007.09
2018-09-30T09:05:21.580Z,1007.07
2018-09-30T09:06:21.640Z,1007.08
2018-09-30T09:07:21.623Z,1007.07
2018-09-30T09:08:21.638Z,1007.02
2018-09-30T09:09:21.661Z,1007.00
2018-09-30T09:10:21.675Z,1006.94
2018-09-30T09:11:21.748Z,1006.92
2018-09-30T09:12:21.717Z,1006.95
2018-09-30T09:13:21.825Z,1006.98
2018-09-30T09:14:21.746Z,1006.98
2018-09-30T09:15:21.787Z,1006.95
2018-09-30T09:17:21.851Z,1006.88
2018-09-30T09:18:21.886Z,1006.92
2018-09-30T09:19:21.840Z,1006.93
2018-09-30T09:20:21.868Z,1006.88
2018-09-30T09:21:22.905Z,1006.84
2018-09-30T09:22:21.962Z,1006.84
2018-09-30T09:23:21.940Z,1006.80
2018-09-30T09:24:21.977Z,1006.79
2018-09-30T09:25:21.963Z,1006.80
2018-09-30T09:26:21.974Z,1006.78
2018-09-30T09:27:21.995Z,1006.80
2018-09-30T09:28:22.013Z,1006.82
2018-09-30T09:29:22.039Z,1006.83
2018-09-30T09:30:22.050Z,1006.78
2018-09-30T09:31:22.076Z,1006.75
2018-09-30T09:32:22.113Z,1006.75
2018-09-30T09:33:22.113Z,1006.76
2018-09-30T09:34:22.128Z,1006.73
2018-09-30T09:35:22.142Z,1006.78
2018-09-30T09:36:22.171Z,1006.76
2018-09-30T09:37:22.201Z,1006.76
2018-09-30T09:38:22.265Z,1006.76
2018-09-30T09:39:22.221Z,1006.76
2018-09-30T09:40:22.239Z,1006.77
2018-09-30T09:41:22.304Z,1006.80
2018-09-30T09:42:22.282Z,1006.78
2018-09-30T09:43:22.305Z,1006.77
2018-09-30T09:44:22.319Z,1006.75
2018-09-30T09:45:22.340Z,1006.75
2018-09-30T09:46:22.357Z,1006.72
2018-09-30T09:47:22.386Z,1006.73
2018-09-30T09:48:22.420Z,1006.73
2018-09-30T09:49:22.411Z,1006.69
2018-09-30T09:50:22.429Z,1006.74
2018-09-30T09:51:22.463Z,1006.71
2018-09-30T09:52:22.555Z,1006.65
2018-09-30T09:53:22.481Z,1006.62
2018-09-30T09:54:22.512Z,1006.65
2018-09-30T09:55:22.531Z,1006.61
2018-09-30T09:56:22.545Z,1006.62
2018-09-30T09:57:22.563Z,1006.57
2018-09-30T09:58:22.590Z,1006.58
2018-09-30T09:59:22.696Z,1006.58
2018-09-30T10:00:22.623Z,1006.52
2018-09-30T10:01:22.641Z,1006.58
2018-09-30T10:02:22.669Z,1006.55
2018-09-30T10:03:22.702Z,1006.55
2018-09-30T10:04:22.705Z,1006.55
2018-09-30T10:05:22.712Z,1006.53
2018-09-30T10:06:22.735Z,1006.50
2018-09-30T10:07:22.755Z,1006.47
2018-09-30T10:08:22.779Z,1006.45
2018-09-30T10:09:22.805Z,1006.49
2018-09-30T10:10:22.811Z,1006.47
2018-09-30T10:11:22.835Z,1006.45
2018-09-30T10:12:22.855Z,1006.46
2018-09-30T10:13:22.975Z,1006.46
2018-09-30T10:14:22.887Z,1006.45
2018-09-30T10:15:22.910Z,1006.44
2018-09-30T10:16:22.980Z,1006.44
2018-09-30T10:17:22.948Z,1006.43
2018-09-30T10:18:22.963Z,1006.39
2018-09-30T10:19:23.012Z,1006.38
2018-09-30T10:20:23.018Z,1006.38
2018-09-30T10:21:23.032Z,1006.38
2018-09-30T10:22:23.058Z,1006.38
2018-09-30T10:23:23.056Z,1006.36
2018-09-30T10:24:23.084Z,1006.33
2018-09-30T10:25:23.108Z,1006.35
2018-09-30T10:26:23.124Z,1006.33
2018-09-30T10:27:23.170Z,1006.33
2018-09-30T10:28:23.168Z,1006.35
2018-09-30T10:29:23.185Z,1006.28
2018-09-30T10:30:23.211Z,1006.28
2018-09-30T10:31:23.286Z,1006.22
2018-09-30T10:32:23.244Z,1006.19
2018-09-30T10:33:23.304Z,1006.19
2018-09-30T10:34:23.284Z,1006.22
2018-09-30T10:35:23.292Z,1006.17
2018-09-30T10:36:23.314Z,1006.16
2018-09-30T10:37:23.355Z,1006.13
2018-09-30T10:38:23.423Z,1006.10
2018-09-30T10:39:23.564Z,1006.10
2018-09-30T10:41:23.412Z,1006.08
2018-09-30T10:42:23.443Z,1006.03
2018-09-30T10:43:23.453Z,1006.00
2018-09-30T10:44:23.483Z,1006.00
2018-09-30T10:45:23.518Z,1005.99
2018-09-30T10:46:23.547Z,1006.01
2018-09-30T10:47:23.540Z,1005.97
2018-09-30T10:48:23.597Z,1005.96
2018-09-30T10:49:23.587Z,1005.94
2018-09-30T10:50:23.613Z,1005.95
2018-09-30T10:51:23.617Z,1005.96
2018-09-30T10:52:23.640Z,1005.94
2018-09-30T10:53:23.657Z,1005.85
2018-09-30T10:54:23.674Z,1005.82
2018-09-30T10:55:23.771Z,1005.88
2018-09-30T10:56:23.719Z,1005.91
2018-09-30T10:57:23.741Z,1005.94
2018-09-30T10:58:23.750Z,1005.88
2018-09-30T10:59:23.774Z,1005.89
2018-09-30T11:00:23.806Z,1005.90
2018-09-30T11:01:23.814Z,1005.87
2018-09-30T11:02:23.838Z,1005.83
2018-09-30T11:03:23.888Z,1005.83
2018-09-30T11:04:23.878Z,1005.84
2018-09-30T11:05:23.888Z,1005.88
2018-09-30T11:06:23.916Z,1005.85
2018-09-30T11:07:23.945Z,1005.78
2018-09-30T11:08:24.105Z,1005.77
2018-09-30T11:09:23.998Z,1005.75
2018-09-30T11:10:23.996Z,1005.74
2018-09-30T11:11:24.030Z,1005.78
2018-09-30T11:12:24.075Z,1005.79
2018-09-30T11:13:24.066Z,1005.83
2018-09-30T11:14:24.098Z,1005.82
2018-09-30T11:15:24.127Z,1005.85
2018-09-30T11:16:24.139Z,1005.86
2018-09-30T11:17:24.159Z,1005.73
2018-09-30T11:18:24.192Z,1005.68
2018-09-30T11:19:24.208Z,1005.64
2018-09-30T11:20:24.238Z,1005.60
2018-09-30T11:21:24.343Z,1005.60
2018-09-30T11:22:24.347Z,1005.64
2018-09-30T11:23:24.299Z,1005.72
2018-09-30T11:24:24.336Z,1005.74
2018-09-30T11:25:24.369Z,1005.74
2018-09-30T11:26:24.379Z,1005.69
2018-09-30T11:27:24.404Z,1005.68
2018-09-30T11:28:24.421Z,1005.61
2018-09-30T11:29:24.473Z,1005.53
2018-09-30T11:30:24.476Z,1005.49
2018-09-30T11:31:24.509Z,1005.46
2018-09-30T11:32:24.589Z,1005.42
2018-09-30T11:33:24.554Z,1005.35
2018-09-30T11:34:24.590Z,1005.33
2018-09-30T11:35:24.599Z,1005.33
2018-09-30T11:36:24.640Z,1005.31
2018-09-30T11:37:24.648Z,1005.24
2018-09-30T11:38:24.677Z,1005.21
2018-09-30T11:39:24.702Z,1005.20
2018-09-30T11:40:24.729Z,1005.17
2018-09-30T11:41:24.759Z,1005.17
2018-09-30T11:42:24.775Z,1005.14
2018-09-30T11:43:24.880Z,1005.12
2018-09-30T11:44:24.823Z,1005.13
2018-09-30T11:45:24.856Z,1005.12
2018-09-30T11:46:24.885Z,1005.10
2018-09-30T11:47:24.920Z,1005.06
2018-09-30T11:48:24.931Z,1005.00
2018-09-30T11:49:24.952Z,1004.97
2018-09-30T11:50:24.964Z,1004.96
2018-09-30T11:51:25.027Z,1004.94
2018-09-30T11:52:25.031Z,1004.92
2018-09-30T11:53:25.039Z,1004.89
2018-09-30T11:54:25.080Z,1004.88
2018-09-30T11:55:25.092Z,1004.82
2018-09-30T11:56:25.114Z,1004.77
2018-09-30T11:57:25.134Z,1004.74
2018-09-30T11:59:25.181Z,1004.71
2018-09-30T12:00:25.200Z,1004.71
2018-09-30T12:01:25.362Z,1004.65
2018-09-30T12:02:25.273Z,1004.66
2018-09-30T12:03:25.278Z,1004.63
2018-09-30T12:04:25.299Z,1004.61
2018-09-30T12:05:25.316Z,1004.58
2018-09-30T12:06:25.347Z,1004.57
2018-09-30T12:07:25.369Z,1004.56
2018-09-30T12:08:25.389Z,1004.57
2018-09-30T12:09:25.409Z,1004.53
2018-09-30T12:10:25.433Z,1004.54
2018-09-30T12:11:25.483Z,1004.50
2018-09-30T12:13:25.506Z,1004.45
2018-09-30T12:14:25.525Z,1004.45
2018-09-30T12:15:25.559Z,1004.42
2018-09-30T12:16:25.567Z,1004.41
2018-09-30T12:17:25.585Z,1004.41
2018-09-30T12:18:25.769Z,1004.38
2018-09-30T12:19:25.629Z,1004.38
2018-09-30T12:20:25.665Z,1004.36
2018-09-30T12:21:25.679Z,1004.33
2018-09-30T12:22:25.710Z,1004.28
2018-09-30T12:23:25.731Z,1004.28
2018-09-30T12:24:25.738Z,1004.26
2018-09-30T12:25:25.783Z,1004.21
2018-09-30T12:26:25.795Z,1004.18